Time;durP1;ratioP1;P1;durP2;ratioP2;P2;SDS_P1;SDS_P2;PMS_P1;PMS_P2;Temp;Humidity;BMP_temperature;BMP_pressure;BME280_temperature;BME280_humidity;BME280_pressure;Samples;Min_cycle;Max_cycle;Signal;HPM_P1;HPM_P2
2021/10/07 11:26:38;;;;;;;38.60;20.57;;;11.70;99.90;;;;;;5097961;27;20435;-68
2021/10/07 11:29:08;;;;;;;39.67;22.83;;;11.70;99.90;;;;;;5099880;28;20122;-68
2021/10/07 11:31:33;;;;;;;37.37;22.17;;;11.70;99.90;;;;;;5100584;28;20047;-69
2021/10/07 11:34:00;;;;;;;35.73;22.30;;;11.70;99.90;;;;;;5107618;28;20066;-69
2021/10/07 11:36:28;;;;;;;36.07;23.37;;;11.80;99.90;;;;;;5109458;28;20075;-69
2021/10/07 11:38:55;;;;;;;36.90;25.07;;;11.80;99.90;;;;;;5108383;28;20043;-70
2021/10/07 11:41:24;;;;;;;41.03;24.77;;;11.90;99.90;;;;;;5108464;28;20036;-70
2021/10/07 11:43:52;;;;;;;35.43;23.90;;;11.90;99.90;;;;;;5108744;28;20127;-70
2021/10/07 11:46:19;;;;;;;41.57;26.60;;;12.00;99.90;;;;;;5109112;28;20047;-70
2021/10/07 11:48:54;;;;;;;41.07;26.20;;;12.00;99.90;;;;;;5109845;28;20036;-70
2021/10/07 11:51:25;;;;;;;39.80;26.47;;;12.00;99.90;;;;;;5109945;28;20518;-69
2021/10/07 11:53:52;;;;;;;39.40;27.00;;;12.10;99.90;;;;;;5108753;28;20036;-71
2021/10/07 11:56:20;;;;;;;41.47;26.00;;;12.10;99.90;;;;;;5108779;28;20044;-71
2021/10/07 11:58:50;;;;;;;41.67;26.40;;;12.20;99.90;;;;;;5109504;28;20055;-71
2021/10/07 12:01:17;;;;;;;40.53;26.77;;;12.20;99.90;;;;;;5107770;28;20048;-71
2021/10/07 12:03:42;;;;;;;39.77;28.03;;;12.20;99.90;;;;;;5109420;28;20062;-70
2021/10/07 12:06:12;;;;;;;35.93;26.93;;;12.30;99.90;;;;;;5109619;28;20491;-69
2021/10/07 12:08:39;;;;;;;38.93;25.77;;;12.30;99.90;;;;;;5107799;28;20078;-69
2021/10/07 12:11:08;;;;;;;37.83;26.13;;;12.30;99.90;;;;;;5108181;28;20055;-70
2021/10/07 12:15:53;;;;;;;36.53;24.90;;;12.30;99.90;;;;;;5127345;27;20659;-68
2021/10/07 12:18:20;;;;;;;36.73;27.37;;;12.30;99.90;;;;;;5122989;27;20055;-69
2021/10/07 12:21:13;;;;;;;33.87;25.30;;;12.40;99.90;;;;;;5122584;27;20155;-72
2021/10/07 12:24:01;;;;;;;39.23;28.60;;;12.40;99.90;;;;;;5123026;28;20480;-75
2021/10/07 12:26:46;;;;;;;32.97;25.37;;;12.50;99.90;;;;;;5116367;27;20048;-74
2021/10/07 12:29:13;;;;;;;30.80;24.43;;;12.60;99.90;;;;;;5107742;28;20106;-69
2021/10/07 12:31:41;;;;;;;31.43;25.70;;;12.60;99.90;;;;;;5109586;28;20165;-69
2021/10/07 12:34:09;;;;;;;32.47;24.73;;;12.60;99.90;;;;;;5108686;28;20177;-69
2021/10/07 12:36:49;;;;;;;34.70;26.10;;;12.70;99.90;;;;;;5142092;27;20035;-69
2021/10/07 12:39:25;;;;;;;39.43;30.80;;;12.80;99.90;;;;;;5109642;28;20044;-69
2021/10/07 12:41:54;;;;;;;36.00;27.17;;;12.90;99.90;;;;;;5108727;28;20725;-69
2021/10/07 12:44:22;;;;;;;36.40;27.90;;;12.90;99.90;;;;;;5109942;28;20055;-69
2021/10/07 12:46:58;;;;;;;34.67;27.37;;;13.00;99.90;;;;;;5108164;28;20058;-69
2021/10/07 12:49:51;;;;;;;34.60;27.57;;;12.90;99.90;;;;;;5109005;28;20035;-69
2021/10/07 12:52:24;;;;;;;35.47;25.97;;;12.90;99.90;;;;;;5108592;27;20060;-68
2021/10/07 12:55:02;;;;;;;37.50;27.50;;;12.80;99.90;;;;;;5108002;28;20093;-71
2021/10/07 12:57:48;;;;;;;37.57;28.03;;;12.70;99.90;;;;;;5107439;28;20518;-71
2021/10/07 13:00:24;;;;;;;40.73;33.13;;;12.70;99.90;;;;;;5108509;28;20076;-72
2021/10/07 13:02:50;;;;;;;36.10;25.80;;;12.70;99.90;;;;;;5115918;28;20558;-74
2021/10/07 13:05:27;;;;;;;35.43;26.67;;;12.80;99.90;;;;;;5114937;28;20127;-73
2021/10/07 13:07:58;;;;;;;34.77;27.57;;;12.80;99.90;;;;;;5121738;28;20507;-76
2021/10/07 13:10:24;;;;;;;36.17;27.40;;;12.80;99.90;;;;;;5121206;27;20035;-74
2021/10/07 13:12:51;;;;;;;34.77;27.30;;;12.80;99.90;;;;;;5120288;27;20281;-76
2021/10/07 13:15:16;;;;;;;33.97;26.97;;;12.80;99.90;;;;;;5116699;28;20063;-74
2021/10/07 13:17:44;;;;;;;34.67;26.97;;;12.80;99.90;;;;;;5118667;27;20052;-69
2021/10/07 13:20:11;;;;;;;35.67;27.70;;;12.80;99.90;;;;;;5128737;28;20059;-69
2021/10/07 13:22:37;;;;;;;33.23;26.87;;;12.90;99.90;;;;;;5129504;27;20028;-69
2021/10/07 13:25:10;;;;;;;35.50;27.90;;;12.90;99.90;;;;;;5125735;27;20062;-70
2021/10/07 13:27:36;;;;;;;35.03;26.77;;;12.90;99.90;;;;;;5115151;28;20118;-69
2021/10/07 13:30:03;;;;;;;32.73;25.87;;;12.90;99.90;;;;;;5114153;28;20101;-70
2021/10/07 13:32:28;;;;;;;31.03;26.10;;;12.90;99.90;;;;;;5113284;28;20075;-70
2021/10/07 13:34:54;;;;;;;33.30;26.67;;;13.00;99.90;;;;;;5113482;28;20067;-69
2021/10/07 13:37:21;;;;;;;32.77;26.33;;;13.00;99.90;;;;;;5115162;28;20138;-68
2021/10/07 13:39:47;;;;;;;34.03;26.80;;;12.90;99.90;;;;;;5113134;28;20434;-69
2021/10/07 13:42:12;;;;;;;31.77;26.30;;;12.90;99.90;;;;;;5115274;28;20043;-74
2021/10/07 13:44:38;;;;;;;32.27;26.53;;;12.90;99.90;;;;;;5113571;28;20031;-69
2021/10/07 13:47:04;;;;;;;34.33;26.53;;;12.90;99.90;;;;;;5112667;28;20047;-69
2021/10/07 13:49:29;;;;;;;33.77;27.23;;;12.90;99.90;;;;;;5115082;28;20070;-70
2021/10/07 13:51:55;;;;;;;35.77;27.97;;;12.90;99.90;;;;;;5112731;28;20043;-68
2021/10/07 13:54:21;;;;;;;34.57;28.00;;;12.80;99.90;;;;;;5113300;28;20044;-69
2021/10/07 13:56:47;;;;;;;31.80;27.20;;;12.80;99.90;;;;;;5114291;28;20514;-69
2021/10/07 13:59:13;;;;;;;31.43;26.37;;;12.70;99.90;;;;;;5112413;28;20044;-68
2021/10/07 14:01:39;;;;;;;32.87;26.50;;;12.70;99.90;;;;;;5113683;28;20383;-68
2021/10/07 14:04:05;;;;;;;35.40;27.40;;;12.70;99.90;;;;;;5115006;28;20054;-69
2021/10/07 14:06:30;;;;;;;32.97;26.57;;;12.70;99.90;;;;;;5112300;28;20035;-68
2021/10/07 14:08:57;;;;;;;34.10;27.77;;;12.70;99.90;;;;;;5112701;28;20510;-67
2021/10/07 14:11:23;;;;;;;33.17;27.67;;;12.70;99.90;;;;;;5113174;28;20575;-69
2021/10/07 16:04:32;;;;;;;31.47;24.33;;;12.10;99.90;;;;;;5120647;27;20391;-66
2021/10/07 16:06:57;;;;;;;35.43;25.90;;;12.10;99.60;;;;;;5120526;27;20418;-74
2021/10/07 16:09:26;;;;;;;33.23;25.20;;;12.10;99.90;;;;;;5121900;28;20069;-74
2021/10/07 16:11:53;;;;;;;31.83;24.97;;;12.10;99.90;;;;;;5130079;27;20039;-73
2021/10/07 16:14:18;;;;;;;29.13;25.23;;;12.10;99.90;;;;;;5112280;27;20066;-73
2021/10/07 16:16:44;;;;;;;34.60;26.73;;;12.00;99.90;;;;;;5108023;28;20040;-72
2021/10/07 16:19:09;;;;;;;30.43;22.83;;;12.10;99.90;;;;;;5109709;28;20101;-72
2021/10/07 16:21:36;;;;;;;31.83;25.63;;;12.10;99.90;;;;;;5107648;28;20047;-72
2021/10/07 16:24:03;;;;;;;30.70;25.33;;;12.10;99.90;;;;;;5109342;28;20040;-71
2021/10/07 16:26:30;;;;;;;28.80;24.67;;;12.00;99.90;;;;;;5108149;28;20496;-70
2021/10/07 16:28:57;;;;;;;28.97;24.40;;;12.00;99.90;;;;;;5107539;28;20173;-72
2021/10/07 16:31:23;;;;;;;33.07;26.13;;;12.00;99.90;;;;;;5108241;28;20044;-74
2021/10/07 16:33:48;;;;;;;30.53;25.00;;;12.00;99.90;;;;;;5123846;27;20492;-73
2021/10/07 16:36:14;;;;;;;32.43;26.47;;;11.90;99.90;;;;;;5121909;28;20051;-77
2021/10/07 16:38:40;;;;;;;33.23;26.13;;;11.90;99.90;;;;;;5088985;28;20055;-75
2021/10/07 16:41:06;;;;;;;32.97;26.67;;;11.80;99.90;;;;;;5088384;28;20040;-77
2021/10/07 16:43:32;;;;;;;27.50;23.30;;;11.80;99.90;;;;;;5121669;28;20063;-76
2021/10/07 16:45:58;;;;;;;30.03;26.00;;;11.70;99.90;;;;;;5088736;28;20477;-74
2021/10/07 16:48:24;;;;;;;30.97;24.93;;;11.70;99.90;;;;;;5120970;28;20056;-75
2021/10/07 16:50:50;;;;;;;30.80;25.77;;;11.70;99.90;;;;;;5088506;28;20370;-74
2021/10/07 16:53:16;;;;;;;29.30;25.90;;;11.70;99.90;;;;;;5088760;28;20078;-76
2021/10/07 16:55:41;;;;;;;32.47;25.83;;;11.70;99.90;;;;;;5087741;28;20052;-76
2021/10/07 16:58:08;;;;;;;31.50;25.13;;;11.60;99.90;;;;;;5131262;27;20642;-77
2021/10/07 17:00:35;;;;;;;32.53;26.77;;;11.60;99.90;;;;;;5108249;28;20051;-79
2021/10/07 17:03:01;;;;;;;29.40;24.33;;;11.60;99.90;;;;;;5116166;28;20108;-73
2021/10/07 17:05:27;;;;;;;32.97;25.33;;;11.50;99.90;;;;;;5119871;27;20051;-69
2021/10/07 17:07:52;;;;;;;32.60;26.83;;;11.50;99.90;;;;;;5104601;28;20055;-71
2021/10/07 17:10:19;;;;;;;29.70;26.50;;;11.50;99.90;;;;;;5087371;28;20048;-70
2021/10/07 17:12:45;;;;;;;35.13;26.80;;;11.50;99.90;;;;;;5087517;28;20048;-70
2021/10/07 17:15:13;;;;;;;29.93;25.00;;;11.50;99.90;;;;;;5077140;28;20062;-70
2021/10/07 17:17:39;;;;;;;34.60;27.93;;;11.50;99.90;;;;;;5073578;28;20044;-70
2021/10/07 17:20:09;;;;;;;31.23;26.03;;;11.40;99.90;;;;;;5074456;28;20056;-69
2021/10/07 17:22:35;;;;;;;31.23;26.27;;;11.40;99.90;;;;;;5072620;28;20049;-69
2021/10/07 17:25:02;;;;;;;36.97;27.10;;;11.40;99.90;;;;;;5073377;28;20059;-69
2021/10/07 17:27:27;;;;;;;35.70;29.33;;;11.30;99.90;;;;;;5072527;28;20500;-69
2021/10/07 17:29:53;;;;;;;33.90;29.90;;;11.30;99.90;;;;;;5071796;28;20102;-70
2021/10/07 17:32:19;;;;;;;33.67;27.50;;;11.30;99.90;;;;;;5073899;28;20120;-70
2021/10/07 18:14:12;;;;;;;36.23;26.30;;;10.30;99.90;;;;;;5084373;27;20917;-77
2021/10/07 18:16:39;;;;;;;40.03;28.00;;;10.20;99.90;;;;;;5088341;28;20040;-82
2021/10/07 18:19:06;;;;;;;45.67;30.20;;;10.20;99.90;;;;;;5086547;28;20087;-82
2021/10/07 18:21:33;;;;;;;44.20;29.23;;;10.20;99.90;;;;;;5087173;28;20036;-76
2021/10/07 18:23:59;;;;;;;44.97;31.07;;;10.20;99.90;;;;;;5104507;28;20659;-77
2021/10/07 18:26:27;;;;;;;40.13;28.83;;;10.10;99.90;;;;;;5087978;28;20408;-81
2021/10/07 18:28:53;;;;;;;39.60;28.40;;;10.20;99.90;;;;;;5086509;28;20048;-82
2021/10/07 18:31:19;;;;;;;45.23;31.77;;;10.20;99.90;;;;;;5087768;28;20400;-81
2021/10/07 18:33:46;;;;;;;41.80;29.53;;;10.20;99.90;;;;;;5080130;28;20044;-80
2021/10/07 18:36:12;;;;;;;39.67;30.37;;;10.20;99.90;;;;;;5082454;28;20048;-78
2021/10/07 18:38:37;;;;;;;41.60;31.20;;;10.20;99.90;;;;;;5088648;28;20503;-75
2021/10/07 18:41:05;;;;;;;35.60;28.93;;;10.30;99.90;;;;;;5088182;28;20135;-81
2021/10/07 18:43:31;;;;;;;38.20;28.37;;;10.30;99.90;;;;;;5081178;28;20044;-81
2021/10/07 18:45:57;;;;;;;37.10;29.37;;;10.40;99.90;;;;;;5088068;28;20508;-82
2021/10/07 18:48:22;;;;;;;37.97;28.43;;;10.40;99.90;;;;;;5086734;28;20051;-77
2021/10/07 18:50:48;;;;;;;43.37;30.87;;;10.40;99.90;;;;;;5084511;28;20048;-83
2021/10/07 18:53:14;;;;;;;39.97;30.50;;;10.40;99.90;;;;;;5082248;28;20072;-80
2021/10/07 18:55:40;;;;;;;42.60;31.97;;;10.40;99.90;;;;;;5088464;28;20490;-81
2021/10/07 18:58:05;;;;;;;40.57;30.63;;;10.40;99.90;;;;;;5087398;28;20052;-78
2021/10/07 19:00:31;;;;;;;36.43;28.53;;;10.30;99.90;;;;;;5080744;28;20066;-78
2021/10/07 19:02:57;;;;;;;36.90;29.07;;;10.30;99.90;;;;;;5085689;28;20070;-72
